createdAt,value
2022-10-11T00:00:27.374Z,67.95
2022-10-11T00:03:06.582Z,67.85
2022-10-11T00:05:45.462Z,67.91
2022-10-11T00:08:23.718Z,68.08
2022-10-11T00:11:06.085Z,68.16
2022-10-11T00:13:44.914Z,67.95
2022-10-11T00:16:23.133Z,68.21
2022-10-11T00:19:01.355Z,68.48
2022-10-11T00:21:39.562Z,68.64
2022-10-11T00:24:17.898Z,68.42
2022-10-11T00:26:55.987Z,68.43
2022-10-11T00:29:34.291Z,68.66
2022-10-11T00:32:25.102Z,68.90
2022-10-11T00:35:06.208Z,68.60
2022-10-11T00:37:43.903Z,68.92
2022-10-11T00:40:22.711Z,68.22
2022-10-11T00:43:00.355Z,68.54
2022-10-11T00:45:38.402Z,68.63
2022-10-11T00:48:27.552Z,68.37
2022-10-11T00:51:20.583Z,68.30
2022-10-11T00:54:01.730Z,69.18
2022-10-11T00:57:00.639Z,68.69
2022-10-11T00:59:44.260Z,68.56
2022-10-11T01:02:24.709Z,68.67
2022-10-11T01:05:28.205Z,69.26
2022-10-11T01:08:04.039Z,68.73
2022-10-11T01:10:41.756Z,68.78
2022-10-11T01:13:56.408Z,67.94
2022-10-11T01:16:55.282Z,67.84
2022-10-11T01:20:26.646Z,67.78
2022-10-11T01:23:38.900Z,67.94
2022-10-11T01:27:18.280Z,67.57
2022-10-11T01:30:18.917Z,67.82
2022-10-11T01:33:06.196Z,68.05
2022-10-11T01:36:27.555Z,68.24
2022-10-11T01:39:22.273Z,67.99
2022-10-11T01:42:03.686Z,68.73
2022-10-11T01:44:45.810Z,68.66
2022-10-11T01:47:35.714Z,68.61
2022-10-11T01:50:34.976Z,68.01
2022-10-11T01:54:08.771Z,67.58
2022-10-11T01:57:24.787Z,67.73
2022-10-11T02:00:10.864Z,68.50
2022-10-11T02:03:09.084Z,67.83
2022-10-11T02:06:01.125Z,68.75
2022-10-11T02:08:51.746Z,68.46
2022-10-11T02:11:32.922Z,69.14
2022-10-11T02:14:25.190Z,68.73
2022-10-11T02:17:18.727Z,68.38
2022-10-11T02:19:59.244Z,69.33
2022-10-11T02:22:40.969Z,69.07
2022-10-11T02:25:25.119Z,69.45
2022-10-11T02:28:14.221Z,69.18
2022-10-11T02:30:54.972Z,69.22
2022-10-11T02:33:58.710Z,68.23
2022-10-11T02:36:59.156Z,68.70
2022-10-11T02:39:55.453Z,68.84
2022-10-11T02:42:49.879Z,68.95
2022-10-11T02:45:40.964Z,69.41
2022-10-11T02:48:18.741Z,69.32
2022-10-11T02:50:59.714Z,70.26
2022-10-11T02:53:37.951Z,70.07
2022-10-11T02:56:16.163Z,69.97
2022-10-11T02:58:54.422Z,69.93
2022-10-11T03:01:32.679Z,70.14
2022-10-11T03:04:10.906Z,69.65
2022-10-11T03:06:49.081Z,69.87
2022-10-11T03:09:27.289Z,69.45
2022-10-11T03:12:05.646Z,70.42
2022-10-11T03:14:43.767Z,69.94
2022-10-11T03:17:36.111Z,70.06
2022-10-11T03:20:14.590Z,70.53
2022-10-11T03:22:52.860Z,70.29
2022-10-11T03:25:31.131Z,69.91
2022-10-11T03:28:09.395Z,69.65
2022-10-11T03:30:51.873Z,70.47
2022-10-11T03:33:30.586Z,70.02
2022-10-11T03:36:09.444Z,69.59
2022-10-11T03:38:46.970Z,69.72
2022-10-11T03:41:25.195Z,70.13
2022-10-11T03:44:04.076Z,70.47
2022-10-11T03:46:41.707Z,69.56
2022-10-11T03:49:19.886Z,69.53
2022-10-11T03:51:58.454Z,69.74
2022-10-11T03:54:36.324Z,69.79
2022-10-11T03:57:14.929Z,69.69
2022-10-11T03:59:52.883Z,69.46
2022-10-11T04:02:32.214Z,69.37
2022-10-11T04:05:12.620Z,69.55
2022-10-11T04:07:50.895Z,69.39
2022-10-11T04:10:28.940Z,69.89
2022-10-11T04:13:07.420Z,69.72
2022-10-11T04:15:45.290Z,69.59
2022-10-11T04:18:23.595Z,69.74
2022-10-11T04:21:01.839Z,69.71
2022-10-11T04:23:40.005Z,69.80
2022-10-11T04:26:18.224Z,69.57
2022-10-11T04:28:57.885Z,69.95
2022-10-11T04:31:36.212Z,69.55
2022-10-11T04:34:14.441Z,69.97
2022-10-11T04:36:52.711Z,70.14
2022-10-11T04:39:30.889Z,69.77
2022-10-11T04:42:09.138Z,69.62
2022-10-11T04:44:47.528Z,70.12
2022-10-11T04:47:25.732Z,70.06
2022-10-11T04:50:04.555Z,70.14
2022-10-11T04:52:42.189Z,69.95
2022-10-11T04:55:20.378Z,70.24
2022-10-11T04:57:58.434Z,70.02
2022-10-11T05:00:36.710Z,70.16
2022-10-11T05:03:14.931Z,69.85
2022-10-11T05:05:53.523Z,70.14
2022-10-11T05:08:31.470Z,69.63
2022-10-11T05:11:15.801Z,69.67
2022-10-11T05:13:56.603Z,69.94
2022-10-11T05:16:34.105Z,70.46
2022-10-11T05:19:12.345Z,69.98
2022-10-11T05:21:50.534Z,70.49
2022-10-11T05:24:28.702Z,69.64
2022-10-11T05:27:06.906Z,70.70
2022-10-11T05:29:45.696Z,70.39
2022-10-11T05:32:26.710Z,70.31
2022-10-11T05:35:07.048Z,70.04
2022-10-11T05:37:57.130Z,70.32
2022-10-11T05:40:34.764Z,69.96
2022-10-11T05:43:12.962Z,69.95
2022-10-11T05:45:51.098Z,70.14
2022-10-11T05:48:29.285Z,70.42
2022-10-11T05:51:10.366Z,70.12
2022-10-11T05:53:49.207Z,70.32
2022-10-11T05:56:27.219Z,70.14
2022-10-11T05:59:06.154Z,69.72
2022-10-11T06:01:56.098Z,70.17
2022-10-11T06:04:37.189Z,69.81
2022-10-11T06:07:15.024Z,69.67
2022-10-11T06:09:53.261Z,69.93
2022-10-11T06:12:31.571Z,70.05
2022-10-11T06:15:29.464Z,70.01
2022-10-11T06:18:26.660Z,70.56
2022-10-11T06:21:22.597Z,69.88
2022-10-11T06:24:18.662Z,70.34
2022-10-11T06:27:13.681Z,70.33
2022-10-11T06:30:10.095Z,70.09
2022-10-11T06:33:10.532Z,70.27
2022-10-11T06:36:07.080Z,70.26
2022-10-11T06:39:08.651Z,70.00
2022-10-11T06:42:04.020Z,69.73
2022-10-11T06:45:14.419Z,70.28
2022-10-11T06:48:09.971Z,70.23
2022-10-11T06:51:17.506Z,69.91
2022-10-11T06:54:12.045Z,70.04
2022-10-11T06:57:06.241Z,69.90
2022-10-11T07:00:01.253Z,70.45
2022-10-11T07:02:53.491Z,70.38
2022-10-11T07:06:30.881Z,70.22
2022-10-11T07:09:22.665Z,70.61
2022-10-11T07:12:18.074Z,70.72
2022-10-11T07:15:15.283Z,70.84
2022-10-11T07:18:10.545Z,70.46
2022-10-11T07:21:16.102Z,71.08
2022-10-11T07:24:11.743Z,70.89
2022-10-11T07:27:06.647Z,70.75
2022-10-11T07:29:58.082Z,71.04
2022-10-11T07:33:02.665Z,71.14
2022-10-11T07:35:58.139Z,70.62
2022-10-11T07:38:54.085Z,71.14
2022-10-11T07:41:51.935Z,70.87
2022-10-11T07:44:47.086Z,71.10
2022-10-11T07:47:46.317Z,70.93
2022-10-11T07:51:08.271Z,70.70
2022-10-11T07:54:14.893Z,71.33
2022-10-11T07:57:06.882Z,71.03
2022-10-11T07:59:59.508Z,70.95
2022-10-11T08:03:07.797Z,70.81
2022-10-11T08:06:13.316Z,70.71
2022-10-11T08:09:10.449Z,71.17
2022-10-11T08:12:05.012Z,70.90
2022-10-11T08:15:02.100Z,71.07
2022-10-11T08:18:05.694Z,71.46
2022-10-11T08:21:15.231Z,70.95
2022-10-11T08:24:25.212Z,70.91
2022-10-11T08:27:17.023Z,71.25
2022-10-11T08:30:13.623Z,71.65
2022-10-11T08:33:23.162Z,71.39
2022-10-11T08:36:24.459Z,71.86
2022-10-11T08:39:18.971Z,71.88
2022-10-11T08:42:43.180Z,72.19
2022-10-11T08:45:46.476Z,71.90
2022-10-11T08:48:44.748Z,72.02
2022-10-11T08:51:48.054Z,72.37
2022-10-11T08:54:51.401Z,72.26
2022-10-11T08:57:57.253Z,72.38
2022-10-11T09:00:55.540Z,72.26
2022-10-11T09:03:44.354Z,72.46
2022-10-11T09:06:57.171Z,72.61
2022-10-11T09:10:40.296Z,72.46
2022-10-11T09:13:56.808Z,72.24
2022-10-11T09:17:24.907Z,72.65
2022-10-11T09:21:01.007Z,72.55
2022-10-11T09:23:51.599Z,72.54
2022-10-11T09:26:56.637Z,72.47
2022-10-11T09:30:01.336Z,72.76
2022-10-11T09:32:46.583Z,73.18
2022-10-11T09:35:21.476Z,73.10
2022-10-11T09:38:21.669Z,73.33
2022-10-11T09:41:05.957Z,73.18
2022-10-11T09:43:33.059Z,73.53
2022-10-11T09:46:00.040Z,73.49
2022-10-11T09:48:40.110Z,73.19
2022-10-11T09:51:14.643Z,72.99
2022-10-11T09:53:54.399Z,73.41
2022-10-11T09:56:24.162Z,73.40
2022-10-11T09:59:30.025Z,73.57
2022-10-11T10:02:12.940Z,73.69
2022-10-11T10:05:20.027Z,73.55
2022-10-11T10:08:26.836Z,72.89
2022-10-11T10:10:59.378Z,73.23
2022-10-11T10:13:49.688Z,73.17
2022-10-11T10:16:43.155Z,73.58
2022-10-11T10:19:25.146Z,73.25
2022-10-11T10:21:55.448Z,72.84
2022-10-11T10:24:28.116Z,73.15
2022-10-11T10:27:14.177Z,73.26
2022-10-11T10:29:41.564Z,73.07
2022-10-11T10:32:27.823Z,73.93
2022-10-11T10:35:17.393Z,73.78
2022-10-11T10:38:05.249Z,73.78
2022-10-11T10:40:50.870Z,73.60
2022-10-11T10:43:24.358Z,73.74
2022-10-11T10:46:12.191Z,73.61
2022-10-11T10:52:20.829Z,73.60
2022-10-11T10:55:16.513Z,74.61
2022-10-11T10:58:05.423Z,74.55
2022-10-11T11:00:49.954Z,74.92
2022-10-11T11:03:36.995Z,74.57
2022-10-11T11:06:15.848Z,75.13
2022-10-11T11:09:54.639Z,75.24
2022-10-11T11:12:53.435Z,72.90
2022-10-11T11:15:43.275Z,72.24
2022-10-11T11:18:44.195Z,72.69
2022-10-11T11:21:41.540Z,72.02
2022-10-11T11:24:32.151Z,73.84
2022-10-11T11:27:40.969Z,73.54
2022-10-11T11:30:16.444Z,73.64
2022-10-11T11:32:59.036Z,73.60
2022-10-11T11:35:45.860Z,72.84
2022-10-11T11:38:43.052Z,73.69
2022-10-11T11:41:28.410Z,72.24
2022-10-11T11:44:09.379Z,73.00
2022-10-11T11:46:46.001Z,73.09
2022-10-11T11:49:22.949Z,73.98
2022-10-11T11:51:51.230Z,73.04
2022-10-11T11:54:47.462Z,72.72
2022-10-11T11:57:52.213Z,73.62
2022-10-11T12:00:21.176Z,73.06
2022-10-11T12:02:59.476Z,72.96
2022-10-11T12:05:32.442Z,73.13
2022-10-11T12:08:06.026Z,73.63
2022-10-11T12:10:55.586Z,73.43
2022-10-11T12:13:37.890Z,73.99
2022-10-11T12:16:13.408Z,73.42
2022-10-11T12:18:57.152Z,72.10
2022-10-11T12:21:36.271Z,73.12
2022-10-11T12:24:15.109Z,72.71
2022-10-11T12:26:58.485Z,73.30
2022-10-11T12:29:59.459Z,73.88
2022-10-11T12:32:35.588Z,72.00
2022-10-11T12:35:53.914Z,74.24
2022-10-11T12:38:26.713Z,72.94
2022-10-11T12:41:13.287Z,72.38
2022-10-11T12:43:49.397Z,73.44
2022-10-11T12:46:28.378Z,73.08
2022-10-11T12:49:32.319Z,70.80
2022-10-11T12:52:17.484Z,72.64
2022-10-11T12:55:23.189Z,70.44
2022-10-11T12:58:27.643Z,71.72
2022-10-11T13:00:57.756Z,71.39
2022-10-11T13:03:32.553Z,72.09
2022-10-11T13:06:09.875Z,71.49
2022-10-11T13:08:43.090Z,71.24
2022-10-11T13:11:17.551Z,71.89
2022-10-11T13:13:59.101Z,71.71
2022-10-11T13:16:30.128Z,72.55
2022-10-11T13:19:00.060Z,71.78
2022-10-11T13:21:29.211Z,71.96
2022-10-11T13:24:18.783Z,73.38
2022-10-11T13:26:50.233Z,71.54
2022-10-11T13:29:29.147Z,71.72
2022-10-11T13:31:56.371Z,71.54
2022-10-11T13:34:24.313Z,72.30
2022-10-11T13:36:58.628Z,71.74
2022-10-11T13:39:38.800Z,72.63
2022-10-11T13:42:13.491Z,72.48
2022-10-11T13:44:42.364Z,71.81
2022-10-11T13:47:16.999Z,72.48
2022-10-11T13:50:00.364Z,72.25
2022-10-11T13:52:27.341Z,71.54
2022-10-11T13:55:04.533Z,72.27
2022-10-11T13:57:49.407Z,71.29
2022-10-11T14:00:17.380Z,71.24
2022-10-11T14:02:56.593Z,70.31
2022-10-11T14:05:43.124Z,71.05
2022-10-11T14:08:30.092Z,71.11
2022-10-11T14:11:01.300Z,70.34
2022-10-11T14:13:36.687Z,70.70
2022-10-11T14:16:05.516Z,69.41
2022-10-11T14:18:48.962Z,71.02
2022-10-11T14:21:34.579Z,70.03
2022-10-11T14:24:02.851Z,70.29
2022-10-11T14:26:38.302Z,70.34
2022-10-11T14:29:29.011Z,71.38
2022-10-11T14:32:10.805Z,70.89
2022-10-11T14:34:38.342Z,69.81
2022-10-11T14:37:05.379Z,69.81
2022-10-11T14:39:33.183Z,69.58
2022-10-11T14:42:00.194Z,68.65
2022-10-11T14:44:27.164Z,69.22
2022-10-11T14:46:54.920Z,69.27
2022-10-11T14:49:42.031Z,69.22
2022-10-11T14:52:13.085Z,69.38
2022-10-11T14:54:40.335Z,69.43
2022-10-11T14:57:12.470Z,69.17
2022-10-11T14:59:39.611Z,68.43
2022-10-11T15:02:08.603Z,68.76
2022-10-11T15:04:35.605Z,68.48
2022-10-11T15:07:03.716Z,68.39
2022-10-11T15:09:31.261Z,68.48
2022-10-11T15:11:58.416Z,68.62
2022-10-11T15:14:26.019Z,68.60
2022-10-11T15:16:53.428Z,68.71
2022-10-11T15:19:24.939Z,68.51
2022-10-11T15:21:52.543Z,68.22
2022-10-11T15:24:19.914Z,68.29
2022-10-11T15:26:48.137Z,68.42
2022-10-11T15:29:17.877Z,68.45
2022-10-11T15:31:46.096Z,68.25
2022-10-11T15:34:13.138Z,68.03
2022-10-11T15:36:40.237Z,67.08
2022-10-11T15:39:30.483Z,67.69
2022-10-11T15:41:58.011Z,67.28
2022-10-11T15:44:24.950Z,66.97
2022-10-11T15:46:52.074Z,67.54
2022-10-11T15:49:19.069Z,67.71
2022-10-11T15:51:46.109Z,67.65
2022-10-11T15:54:13.046Z,67.44
2022-10-11T15:56:40.007Z,67.58
2022-10-11T15:59:06.984Z,67.42
2022-10-11T16:01:33.941Z,67.80
2022-10-11T16:04:01.013Z,67.62
2022-10-11T16:06:28.092Z,67.19
2022-10-11T16:08:55.042Z,67.43
2022-10-11T16:11:22.058Z,67.12
2022-10-11T16:13:49.485Z,67.49
2022-10-11T16:16:16.581Z,67.21
2022-10-11T16:18:43.535Z,67.42
2022-10-11T16:21:14.240Z,67.67
2022-10-11T16:23:41.446Z,66.88
2022-10-11T16:26:13.601Z,67.67
2022-10-11T16:28:41.836Z,67.57
2022-10-11T16:31:13.158Z,67.50
2022-10-11T16:33:45.665Z,67.42
2022-10-11T16:36:32.803Z,67.35
2022-10-11T16:39:03.336Z,67.90
2022-10-11T16:41:30.412Z,68.20
2022-10-11T16:43:57.362Z,67.89
2022-10-11T16:46:24.796Z,67.53
2022-10-11T16:48:58.371Z,67.65
2022-10-11T16:51:25.585Z,67.63
2022-10-11T16:53:53.303Z,67.47
2022-10-11T16:56:22.489Z,67.37
2022-10-11T16:58:49.566Z,67.19
2022-10-11T17:01:16.707Z,67.30
2022-10-11T17:03:43.738Z,67.42
2022-10-11T17:06:10.750Z,67.35
2022-10-11T17:08:37.679Z,67.35
2022-10-11T17:11:04.975Z,67.12
2022-10-11T17:13:32.243Z,66.96
2022-10-11T17:15:59.412Z,67.47
2022-10-11T17:18:26.486Z,67.25
2022-10-11T17:21:08.899Z,66.75
2022-10-11T17:23:36.757Z,67.13
2022-10-11T17:26:11.171Z,66.96
2022-10-11T17:28:38.896Z,67.35
2022-10-11T17:31:07.488Z,66.95
2022-10-11T17:33:34.815Z,67.50
2022-10-11T17:36:02.167Z,67.12
2022-10-11T17:38:29.288Z,67.00
2022-10-11T17:41:05.534Z,66.76
2022-10-11T17:43:32.649Z,67.53
2022-10-11T17:46:05.108Z,67.20
2022-10-11T17:48:36.485Z,67.44
2022-10-11T17:51:16.629Z,67.08
2022-10-11T17:53:45.202Z,67.63
2022-10-11T17:56:16.159Z,66.87
2022-10-11T17:58:43.752Z,67.02
2022-10-11T18:01:15.770Z,67.88
2022-10-11T18:03:43.716Z,67.58
2022-10-11T18:06:13.159Z,67.64
2022-10-11T18:08:41.096Z,67.41
2022-10-11T18:11:16.328Z,67.03
2022-10-11T18:13:46.482Z,67.61
2022-10-11T18:16:16.487Z,68.56
2022-10-11T18:18:44.316Z,67.47
2022-10-11T18:21:11.619Z,68.02
2022-10-11T18:23:39.159Z,67.70
2022-10-11T18:26:15.787Z,67.77
2022-10-11T18:28:44.147Z,67.93
2022-10-11T18:31:19.493Z,67.17
2022-10-11T18:33:47.719Z,67.49
2022-10-11T18:36:17.536Z,67.73
2022-10-11T18:38:49.323Z,67.72
2022-10-11T18:41:19.113Z,67.97
2022-10-11T18:43:56.274Z,67.10
2022-10-11T18:46:27.621Z,67.51
2022-10-11T18:48:57.162Z,67.65
2022-10-11T18:51:32.283Z,67.52
2022-10-11T18:53:59.953Z,67.65
2022-10-11T18:56:29.111Z,67.68
2022-10-11T18:58:57.770Z,67.82
2022-10-11T19:01:44.406Z,67.40
2022-10-11T19:04:15.840Z,67.92
2022-10-11T19:06:47.766Z,67.97
2022-10-11T19:09:22.280Z,67.71
2022-10-11T19:11:53.524Z,67.69
2022-10-11T19:14:28.256Z,67.73
2022-10-11T19:16:56.578Z,67.50
2022-10-11T19:19:27.688Z,67.44
2022-10-11T19:21:55.257Z,67.68
2022-10-11T19:24:26.511Z,67.59
2022-10-11T19:26:58.552Z,67.64
2022-10-11T19:29:30.402Z,67.76
2022-10-11T19:31:59.701Z,67.41
2022-10-11T19:34:28.610Z,67.43
2022-10-11T19:36:56.495Z,67.87
2022-10-11T19:39:26.167Z,67.82
2022-10-11T19:41:53.237Z,67.81
2022-10-11T19:44:20.769Z,67.67
2022-10-11T19:46:52.323Z,67.85
2022-10-11T19:49:24.704Z,67.90
2022-10-11T19:51:53.802Z,67.56
2022-10-11T19:54:21.027Z,67.74
2022-10-11T19:56:48.202Z,67.72
2022-10-11T19:59:15.922Z,67.40
2022-10-11T20:01:45.518Z,67.83
2022-10-11T20:04:33.517Z,67.83
2022-10-11T20:07:02.311Z,67.60
2022-10-11T20:09:30.608Z,67.85
2022-10-11T20:11:58.688Z,67.40
2022-10-11T20:14:25.999Z,67.59
2022-10-11T20:16:53.234Z,67.95
2022-10-11T20:19:23.896Z,67.86
2022-10-11T20:21:54.940Z,67.88
2022-10-11T20:24:21.995Z,67.90
2022-10-11T20:26:51.551Z,67.69
2022-10-11T20:29:18.493Z,67.64
2022-10-11T20:31:45.455Z,67.71
2022-10-11T20:34:13.241Z,67.61
2022-10-11T20:36:40.299Z,67.70
2022-10-11T20:39:07.859Z,67.40
2022-10-11T20:41:39.686Z,67.56
2022-10-11T20:44:07.998Z,67.46
2022-10-11T20:46:39.097Z,67.68
2022-10-11T20:49:09.615Z,67.47
2022-10-11T20:51:41.355Z,67.51
2022-10-11T20:54:09.058Z,67.72
2022-10-11T20:56:36.133Z,67.51
2022-10-11T20:59:03.539Z,67.77
2022-10-11T21:01:35.152Z,67.19
2022-10-11T21:04:02.821Z,67.54
2022-10-11T21:06:31.789Z,67.36
2022-10-11T21:09:00.230Z,67.61
2022-10-11T21:11:29.202Z,67.44
2022-10-11T21:14:04.964Z,67.67
2022-10-11T21:16:33.609Z,67.59
2022-10-11T21:19:02.482Z,67.57
2022-10-11T21:21:30.300Z,67.68
2022-10-11T21:24:01.697Z,67.43
2022-10-11T21:26:29.928Z,67.40
2022-10-11T21:28:59.404Z,67.30
2022-10-11T21:31:31.283Z,67.34
2022-10-11T21:34:01.785Z,67.20
2022-10-11T21:36:28.748Z,67.14
2022-10-11T21:38:56.616Z,67.46
2022-10-11T21:41:25.777Z,67.41
2022-10-11T21:43:53.252Z,67.58
2022-10-11T21:46:22.755Z,67.57
2022-10-11T21:48:50.348Z,67.04
2022-10-11T21:51:29.405Z,67.06
2022-10-11T21:54:00.143Z,67.22
2022-10-11T21:56:28.486Z,67.35
2022-10-11T21:58:55.895Z,67.78
2022-10-11T22:01:23.279Z,68.40
2022-10-11T22:03:50.274Z,67.73
2022-10-11T22:06:17.451Z,68.83
2022-10-11T22:08:44.642Z,68.04
2022-10-11T22:11:12.412Z,67.94
2022-10-11T22:13:39.433Z,67.63
2022-10-11T22:16:09.464Z,67.76
2022-10-11T22:18:36.947Z,68.22
2022-10-11T22:21:17.499Z,67.56
2022-10-11T22:23:47.372Z,67.71
2022-10-11T22:26:25.303Z,67.55
2022-10-11T22:28:53.395Z,67.86
2022-10-11T22:31:21.437Z,67.90
2022-10-11T22:33:49.376Z,67.88
2022-10-11T22:36:17.143Z,68.04
2022-10-11T22:38:44.937Z,68.52
2022-10-11T22:41:12.687Z,67.97
2022-10-11T22:43:40.137Z,68.46
2022-10-11T22:46:08.404Z,68.46
2022-10-11T22:48:35.977Z,68.43
2022-10-11T22:51:03.318Z,68.22
2022-10-11T22:53:30.668Z,68.16
2022-10-11T22:55:57.906Z,68.25
2022-10-11T22:58:24.918Z,68.31
2022-10-11T23:00:51.958Z,67.90
2022-10-11T23:03:19.419Z,68.20
2022-10-11T23:05:57.535Z,67.85
2022-10-11T23:08:24.859Z,68.25
2022-10-11T23:10:51.972Z,68.10
2022-10-11T23:13:19.398Z,68.25
2022-10-11T23:15:46.520Z,68.14
2022-10-11T23:18:15.362Z,68.23
2022-10-11T23:20:42.308Z,67.91
2022-10-11T23:23:09.243Z,67.83
2022-10-11T23:25:36.187Z,67.61
2022-10-11T23:28:03.133Z,67.96
2022-10-11T23:30:30.781Z,68.00
2022-10-11T23:32:57.815Z,68.09
2022-10-11T23:35:25.159Z,67.87
2022-10-11T23:37:54.232Z,67.96
2022-10-11T23:40:21.369Z,67.99
2022-10-11T23:42:48.322Z,68.22
2022-10-11T23:45:15.444Z,68.31
2022-10-11T23:47:42.401Z,68.07
2022-10-11T23:50:09.540Z,68.19
2022-10-11T23:52:36.618Z,68.01
2022-10-11T23:55:04.209Z,68.37
2022-10-11T23:57:31.224Z,68.21
2022-10-11T23:59:58.146Z,68.02
